Estación Meteorológica Peña el Pijo (Robertgarden) [ 06/24/19 13:07:06 CEST ]

Fecha Hora Presion(HPa) Temp (°C) Humedad % Rocio (°C) Viento ( m/s) Direccion Lluvia 1Hora(mm) Lluvia 24H(mm) LLuvia Total(mm)
2019-Feb-21 01:01:22 1014.700 1.1 71 -3.6         183.37
2019-Feb-21 02:03:12 1014.800 0.9 73 -3.4         183.37
2019-Feb-21 03:01:46 1014.700 0.6 74 -3.5         183.37
2019-Feb-21 04:01:52 1014.500 0.4 75 -3.5         183.37
2019-Feb-21 05:01:56 1014.400 0.3 76 -3.4         183.37
2019-Feb-21 06:01:53 1014.400 0.2 76 -3.5         183.37
2019-Feb-21 07:01:11 1014.600 0.2 77 -3.4         183.37
2019-Feb-21 08:01:48 1015.200 -0.4 77 -3.9         183.37
2019-Feb-21 09:01:51 1015.700 0.1 79 -3.1         183.37
2019-Feb-21 10:01:56 1015.800 5.7 63 -0.8         183.37
2019-Feb-21 11:01:46 1015.600 11.1 42 -1.4 2.5 NE     183.37
2019-Feb-21 12:01:54 1015.700 13.4 35 -1.9 3.0 E     183.37
2019-Feb-21 13:02:08 1015.700 14.9 32 -1.7         183.37
2019-Feb-21 14:01:46 1015.400 16.4 28 -2.3         183.37
2019-Feb-21 15:01:50 1015.400 16.9 28 -1.9 1.4 E     183.37
2019-Feb-21 16:01:53 1015.500 16.6 32 -0.3 1.8 NE     183.37
2019-Feb-21 17:01:46 1015.700 15.3 37 0.6         183.37
2019-Feb-21 18:01:47 1016.100 12.5 43 0.2         183.37
2019-Feb-21 19:01:56 1016.800 9.9 50 0.0         183.37
2019-Feb-21 20:01:53 1017.900 7.1 57 -0.9         183.37
2019-Feb-21 21:01:53 1018.400 5.0 62 -1.7         183.37
2019-Feb-21 22:02:04 1019.300 3.4 66 -2.4         183.37
2019-Feb-21 23:01:46 1019.700 2.5 70 -2.4         183.37

Temperatura Máxima:16°    Temperatura Mínima:
Presión Máxima:1019.700 Hpa    Presión Mínima:1014.400 Hpa


Volver